createdAt,value
2023-04-14T00:00:03.896Z,4.800000
2023-04-14T00:01:00.596Z,4.800000
2023-04-14T00:02:00.747Z,4.800000
2023-04-14T00:03:00.886Z,4.700000
2023-04-14T00:04:00.909Z,4.700000
2023-04-14T00:05:03.358Z,4.700000
2023-04-14T00:06:00.726Z,4.500000
2023-04-14T00:07:00.641Z,4.500000
2023-04-14T00:08:00.729Z,4.300000
2023-04-14T00:09:00.852Z,4.300000
2023-04-14T00:10:04.365Z,4.100000
2023-04-14T00:11:00.663Z,4.100000
2023-04-14T00:12:00.770Z,4.100000
2023-04-14T00:13:00.687Z,4.000000
2023-04-14T00:14:00.754Z,4.000000
2023-04-14T00:15:03.258Z,4.000000
2023-04-14T00:16:00.797Z,4.000000
2023-04-14T00:17:00.720Z,4.000000
2023-04-14T00:18:00.802Z,3.900000
2023-04-14T00:19:00.980Z,3.900000
2023-04-14T00:20:03.963Z,3.900000
2023-04-14T00:21:00.736Z,3.900000
2023-04-14T00:22:00.808Z,3.900000
2023-04-14T00:23:00.719Z,3.900000
2023-04-14T00:24:00.812Z,3.900000
2023-04-14T00:25:03.549Z,3.900000
2023-04-14T00:26:00.808Z,3.800000
2023-04-14T00:27:00.759Z,3.800000
2023-04-14T00:28:00.885Z,3.800000
2023-04-14T00:29:01.250Z,3.800000
2023-04-14T00:30:03.886Z,3.800000
2023-04-14T00:31:00.836Z,3.800000
2023-04-14T00:32:00.869Z,3.800000
2023-04-14T00:33:00.828Z,3.900000
2023-04-14T00:34:00.891Z,3.900000
2023-04-14T00:35:03.550Z,3.900000
2023-04-14T00:36:00.894Z,4.000000
2023-04-14T00:37:00.813Z,4.000000
2023-04-14T00:38:00.876Z,4.000000
2023-04-14T00:39:00.962Z,4.100000
2023-04-14T00:40:04.280Z,4.100000
2023-04-14T00:41:00.838Z,4.200000
2023-04-14T00:42:00.926Z,4.200000
2023-04-14T00:43:00.857Z,4.200000
2023-04-14T00:44:00.953Z,4.200000
2023-04-14T00:45:04.269Z,4.200000
2023-04-14T00:46:01.021Z,4.200000
2023-04-14T00:47:00.858Z,4.200000
2023-04-14T00:48:01.067Z,4.200000
2023-04-14T00:49:01.091Z,4.200000
2023-04-14T00:50:04.009Z,4.200000
2023-04-14T00:51:00.898Z,4.300000
2023-04-14T00:52:01.019Z,4.300000
2023-04-14T00:53:00.902Z,4.300000
2023-04-14T00:54:00.978Z,4.300000
2023-04-14T00:55:03.870Z,4.300000
2023-04-14T00:56:00.998Z,4.300000
2023-04-14T00:57:00.933Z,4.300000
2023-04-14T00:58:01.073Z,4.300000
2023-04-14T00:59:01.211Z,4.400000
2023-04-14T01:00:03.941Z,4.400000
2023-04-14T01:01:00.953Z,4.400000
2023-04-14T01:02:01.136Z,4.400000
2023-04-14T01:03:01.062Z,4.400000
2023-04-14T01:04:01.162Z,4.400000
2023-04-14T01:05:04.036Z,4.400000
2023-04-14T01:06:01.076Z,4.400000
2023-04-14T01:07:00.988Z,4.400000
2023-04-14T01:08:01.071Z,4.400000
2023-04-14T01:09:01.176Z,4.400000
2023-04-14T01:10:04.385Z,4.400000
2023-04-14T01:11:01.034Z,4.300000
2023-04-14T01:12:01.105Z,4.300000
2023-04-14T01:13:01.018Z,4.300000
2023-04-14T01:14:01.114Z,4.000000
2023-04-14T01:15:03.853Z,4.000000
2023-04-14T01:16:01.157Z,3.900000
2023-04-14T01:17:01.028Z,3.900000
2023-04-14T01:18:01.156Z,3.800000
2023-04-14T01:19:01.414Z,3.800000
2023-04-14T01:20:04.170Z,3.800000
2023-04-14T01:21:01.083Z,3.700000
2023-04-14T01:22:01.150Z,3.700000
2023-04-14T01:23:01.077Z,3.700000
2023-04-14T01:24:01.164Z,3.700000
2023-04-14T01:25:07.408Z,3.700000
2023-04-14T01:26:01.161Z,3.700000
2023-04-14T01:27:01.109Z,3.700000
2023-04-14T01:28:01.196Z,3.600000
2023-04-14T01:29:01.274Z,3.600000
2023-04-14T01:30:04.641Z,3.600000
2023-04-14T01:31:01.141Z,3.600000
2023-04-14T01:32:01.259Z,3.600000
2023-04-14T01:33:01.261Z,3.600000
2023-04-14T01:34:01.245Z,3.600000
2023-04-14T01:35:03.773Z,3.600000
2023-04-14T01:36:01.234Z,3.600000
2023-04-14T01:37:01.176Z,3.600000
2023-04-14T01:38:01.270Z,3.600000
2023-04-14T01:39:01.399Z,3.600000
2023-04-14T01:40:06.034Z,3.600000
2023-04-14T01:41:01.177Z,3.600000
2023-04-14T01:42:01.272Z,3.600000
2023-04-14T01:43:01.183Z,3.600000
2023-04-14T01:44:01.313Z,3.600000
2023-04-14T01:45:03.857Z,3.600000
2023-04-14T01:46:00.350Z,3.600000
2023-04-14T01:47:00.220Z,3.600000
2023-04-14T01:48:00.317Z,3.600000
2023-04-14T01:49:00.365Z,3.600000
2023-04-14T01:50:03.518Z,3.600000
2023-04-14T01:51:00.243Z,3.600000
2023-04-14T01:52:00.316Z,3.600000
2023-04-14T01:53:00.238Z,3.600000
2023-04-14T01:54:00.328Z,3.600000
2023-04-14T01:55:03.022Z,3.600000
2023-04-14T01:56:00.345Z,3.600000
2023-04-14T01:57:00.300Z,3.600000
2023-04-14T01:58:00.357Z,3.600000
2023-04-14T01:59:00.479Z,3.500000
2023-04-14T02:00:04.368Z,3.500000
2023-04-14T02:01:00.320Z,3.500000
2023-04-14T02:02:00.576Z,3.500000
2023-04-14T02:03:00.433Z,3.500000
2023-04-14T02:04:00.551Z,3.500000
2023-04-14T02:05:02.985Z,3.500000
2023-04-14T02:06:00.391Z,3.500000
2023-04-14T02:07:00.326Z,3.500000
2023-04-14T02:08:00.407Z,3.500000
2023-04-14T02:09:00.607Z,3.500000
2023-04-14T02:10:03.451Z,3.400000
2023-04-14T02:11:00.356Z,3.400000
2023-04-14T02:12:00.424Z,3.300000
2023-04-14T02:13:00.338Z,3.300000
2023-04-14T02:14:00.424Z,3.200000
2023-04-14T02:15:02.987Z,3.200000
2023-04-14T02:16:00.456Z,3.200000
2023-04-14T02:17:00.395Z,3.200000
2023-04-14T02:18:00.514Z,3.200000
2023-04-14T02:19:00.658Z,3.200000
2023-04-14T02:20:03.834Z,3.100000
2023-04-14T02:21:00.391Z,3.100000
2023-04-14T02:22:00.458Z,3.000000
2023-04-14T02:23:00.401Z,3.000000
2023-04-14T02:24:00.485Z,2.900000
2023-04-14T02:25:03.157Z,2.900000
2023-04-14T02:26:00.496Z,2.900000
2023-04-14T02:27:00.448Z,2.800000
2023-04-14T02:28:00.515Z,2.800000
2023-04-14T02:29:00.586Z,2.800000
2023-04-14T02:30:04.015Z,2.700000
2023-04-14T02:31:00.478Z,2.700000
2023-04-14T02:32:00.500Z,2.700000
2023-04-14T02:33:00.472Z,2.700000
2023-04-14T02:34:00.546Z,2.700000
2023-04-14T02:35:04.370Z,2.600000
2023-04-14T02:36:00.538Z,2.600000
2023-04-14T02:37:00.439Z,2.600000
2023-04-14T02:38:00.529Z,2.600000
2023-04-14T02:39:00.872Z,2.600000
2023-04-14T02:40:03.343Z,2.600000
2023-04-14T02:41:00.467Z,2.600000
2023-04-14T02:42:00.561Z,2.600000
2023-04-14T02:43:00.472Z,2.600000
2023-04-14T02:44:00.547Z,2.500000
2023-04-14T02:45:03.318Z,2.500000
2023-04-14T02:46:00.595Z,2.500000
2023-04-14T02:47:00.493Z,2.500000
2023-04-14T02:48:00.619Z,2.500000
2023-04-14T02:49:00.722Z,2.500000
2023-04-14T02:50:06.937Z,2.500000
2023-04-14T02:51:00.524Z,2.500000
2023-04-14T02:52:00.618Z,2.400000
2023-04-14T02:53:00.519Z,2.400000
2023-04-14T02:54:00.608Z,2.400000
2023-04-14T02:55:03.281Z,2.400000
2023-04-14T02:56:00.629Z,2.400000
2023-04-14T02:57:00.573Z,2.400000
2023-04-14T02:58:00.655Z,2.400000
2023-04-14T02:59:00.782Z,2.400000
2023-04-14T03:00:04.410Z,2.300000
2023-04-14T03:01:00.562Z,2.300000
2023-04-14T03:02:00.721Z,2.300000
2023-04-14T03:03:00.641Z,2.300000
2023-04-14T03:04:00.815Z,2.300000
2023-04-14T03:05:03.319Z,2.400000
2023-04-14T03:06:00.732Z,2.400000
2023-04-14T03:07:00.622Z,2.400000
2023-04-14T03:08:00.681Z,2.400000
2023-04-14T03:09:00.811Z,2.400000
2023-04-14T03:10:03.699Z,2.400000
2023-04-14T03:11:00.616Z,2.400000
2023-04-14T03:12:00.713Z,2.400000
2023-04-14T03:13:00.641Z,2.300000
2023-04-14T03:14:00.697Z,2.300000
2023-04-14T03:15:03.510Z,2.300000
2023-04-14T03:16:01.000Z,2.300000
2023-04-14T03:17:00.646Z,2.300000
2023-04-14T03:18:00.898Z,2.300000
2023-04-14T03:19:01.070Z,2.300000
2023-04-14T03:20:03.683Z,2.200000
2023-04-14T03:21:00.668Z,2.200000
2023-04-14T03:22:01.093Z,2.200000
2023-04-14T03:23:00.672Z,2.200000
2023-04-14T03:24:01.120Z,2.200000
2023-04-14T03:25:03.399Z,2.200000
2023-04-14T03:26:01.141Z,2.100000
2023-04-14T03:27:00.738Z,2.100000
2023-04-14T03:28:01.291Z,2.100000
2023-04-14T03:29:00.887Z,2.100000
2023-04-14T03:30:04.964Z,2.100000
2023-04-14T03:31:00.746Z,2.100000
2023-04-14T03:32:00.837Z,2.100000
2023-04-14T03:33:00.852Z,2.000000
2023-04-14T03:34:01.514Z,2.000000
2023-04-14T03:35:03.497Z,2.000000
2023-04-14T03:36:01.624Z,1.900000
2023-04-14T03:37:00.835Z,1.900000
2023-04-14T03:38:01.843Z,1.900000
2023-04-14T03:39:01.133Z,1.900000
2023-04-14T03:40:04.010Z,1.900000
2023-04-14T03:41:00.802Z,1.800000
2023-04-14T03:42:01.907Z,1.800000
2023-04-14T03:43:00.820Z,1.800000
2023-04-14T03:44:01.862Z,1.800000
2023-04-14T03:45:03.568Z,1.800000
2023-04-14T03:46:02.040Z,1.700000
2023-04-14T03:47:00.878Z,1.700000
2023-04-14T03:48:02.092Z,1.700000
2023-04-14T03:49:01.100Z,1.700000
2023-04-14T03:50:03.950Z,1.700000
2023-04-14T03:51:00.851Z,1.700000
2023-04-14T03:52:01.601Z,1.700000
2023-04-14T03:53:00.871Z,1.600000
2023-04-14T03:54:01.025Z,1.600000
2023-04-14T03:55:03.708Z,1.600000
2023-04-14T03:56:00.974Z,1.600000
2023-04-14T03:57:00.879Z,1.600000
2023-04-14T03:58:00.992Z,1.600000
2023-04-14T03:59:01.198Z,1.600000
2023-04-14T04:00:05.302Z,1.600000
2023-04-14T04:01:00.910Z,1.700000
2023-04-14T04:02:01.161Z,1.700000
2023-04-14T04:03:01.306Z,1.600000
2023-04-14T04:04:01.093Z,1.600000
2023-04-14T04:05:03.606Z,1.600000
2023-04-14T04:06:01.023Z,1.600000
2023-04-14T04:07:00.960Z,1.600000
2023-04-14T04:08:01.019Z,1.600000
2023-04-14T04:09:01.346Z,1.600000
2023-04-14T04:10:04.184Z,1.600000
2023-04-14T04:11:00.981Z,1.600000
2023-04-14T04:12:01.072Z,1.600000
2023-04-14T04:13:01.002Z,1.600000
2023-04-14T04:14:01.061Z,1.600000
2023-04-14T04:15:03.695Z,1.600000
2023-04-14T04:16:01.117Z,1.600000
2023-04-14T04:17:01.031Z,1.600000
2023-04-14T04:18:01.164Z,1.600000
2023-04-14T04:19:01.216Z,1.600000
2023-04-14T04:20:06.825Z,1.600000
2023-04-14T04:21:01.055Z,1.600000
2023-04-14T04:22:01.154Z,1.600000
2023-04-14T04:23:01.034Z,1.500000
2023-04-14T04:24:01.148Z,1.500000
2023-04-14T04:25:04.921Z,1.500000
2023-04-14T04:26:01.191Z,1.500000
2023-04-14T04:27:01.083Z,1.500000
2023-04-14T04:28:01.185Z,1.500000
2023-04-14T04:29:01.420Z,1.500000
2023-04-14T04:30:05.450Z,1.500000
2023-04-14T04:31:01.079Z,1.500000
2023-04-14T04:32:01.205Z,1.500000
2023-04-14T04:33:01.139Z,1.500000
2023-04-14T04:34:01.296Z,1.500000
2023-04-14T04:35:04.096Z,1.500000
2023-04-14T04:36:01.248Z,1.400000
2023-04-14T04:37:01.111Z,1.400000
2023-04-14T04:38:01.205Z,1.400000
2023-04-14T04:39:01.413Z,1.400000
2023-04-14T04:40:04.420Z,1.400000
2023-04-14T04:41:01.134Z,1.300000
2023-04-14T04:42:01.231Z,1.300000
2023-04-14T04:43:01.152Z,1.300000
2023-04-14T04:44:01.222Z,1.300000
2023-04-14T04:45:04.056Z,1.300000
2023-04-14T04:46:02.366Z,1.300000
2023-04-14T04:47:01.168Z,1.300000
2023-04-14T04:48:01.291Z,1.300000
2023-04-14T04:49:01.326Z,1.200000
2023-04-14T04:50:05.275Z,1.200000
2023-04-14T04:51:01.174Z,1.200000
2023-04-14T04:52:01.285Z,1.200000
2023-04-14T04:53:01.184Z,1.200000
2023-04-14T04:54:01.273Z,1.200000
2023-04-14T04:55:03.943Z,1.200000
2023-04-14T04:56:01.336Z,1.200000
2023-04-14T04:57:00.212Z,1.200000
2023-04-14T04:59:05.148Z,1.200000
2023-04-14T05:00:03.623Z,1.200000
2023-04-14T05:01:00.265Z,1.100000
2023-04-14T05:02:00.453Z,1.100000
2023-04-14T05:03:00.379Z,1.100000
2023-04-14T05:04:00.352Z,1.100000
2023-04-14T05:05:03.326Z,1.100000
2023-04-14T05:06:00.343Z,1.100000
2023-04-14T05:07:00.242Z,1.200000
2023-04-14T05:08:00.341Z,1.200000
2023-04-14T05:09:00.555Z,1.300000
2023-04-14T05:10:03.707Z,1.300000
2023-04-14T05:11:00.346Z,1.300000
2023-04-14T05:12:00.365Z,1.300000
2023-04-14T05:13:00.290Z,1.300000
2023-04-14T05:14:00.371Z,1.300000
2023-04-14T05:15:03.491Z,1.300000
2023-04-14T05:16:00.399Z,1.300000
2023-04-14T05:17:00.365Z,1.300000
2023-04-14T05:18:00.460Z,1.300000
2023-04-14T05:19:00.587Z,1.300000
2023-04-14T05:20:04.315Z,1.300000
2023-04-14T05:21:00.322Z,1.300000
2023-04-14T05:22:00.406Z,1.300000
2023-04-14T05:23:00.361Z,1.300000
2023-04-14T05:24:00.458Z,1.300000
2023-04-14T05:25:03.176Z,1.300000
2023-04-14T05:26:16.419Z,1.300000
2023-04-14T05:27:13.768Z,1.300000
2023-04-14T05:28:00.443Z,1.300000
2023-04-14T05:29:01.078Z,1.300000
2023-04-14T05:30:03.955Z,1.300000
2023-04-14T05:31:01.336Z,1.300000
2023-04-14T05:32:00.494Z,1.300000
2023-04-14T05:33:00.530Z,1.300000
2023-04-14T05:34:00.906Z,1.400000
2023-04-14T05:35:03.356Z,1.400000
2023-04-14T05:36:00.747Z,1.400000
2023-04-14T05:37:00.647Z,1.500000
2023-04-14T05:38:00.435Z,1.500000
2023-04-14T05:39:00.444Z,1.500000
2023-04-14T05:40:03.718Z,1.600000
2023-04-14T05:41:00.472Z,1.600000
2023-04-14T05:42:00.574Z,1.900000
2023-04-14T05:43:00.451Z,1.900000
2023-04-14T05:44:00.877Z,1.900000
2023-04-14T05:45:03.170Z,1.900000
2023-04-14T05:46:00.537Z,1.900000
2023-04-14T05:47:00.663Z,2.300000
2023-04-14T05:48:00.639Z,2.300000
2023-04-14T05:49:00.882Z,2.300000
2023-04-14T05:50:03.449Z,2.400000
2023-04-14T05:51:00.531Z,2.400000
2023-04-14T05:52:00.590Z,2.500000
2023-04-14T05:53:00.502Z,2.500000
2023-04-14T05:54:00.952Z,2.600000
2023-04-14T05:55:03.081Z,2.600000
2023-04-14T05:56:00.602Z,2.600000
2023-04-14T05:57:00.523Z,2.800000
2023-04-14T05:58:00.596Z,2.800000
2023-04-14T05:59:00.547Z,2.800000
2023-04-14T06:00:05.560Z,3.000000
2023-04-14T06:01:00.548Z,3.000000
2023-04-14T06:02:00.670Z,3.100000
2023-04-14T06:03:00.767Z,3.100000
2023-04-14T06:04:01.362Z,3.400000
2023-04-14T06:05:03.574Z,3.400000
2023-04-14T06:06:00.698Z,3.500000
2023-04-14T06:07:00.636Z,3.500000
2023-04-14T06:08:00.688Z,3.500000
2023-04-14T06:09:01.025Z,3.600000
2023-04-14T06:10:03.758Z,3.600000
2023-04-14T06:11:00.620Z,3.600000
2023-04-14T06:12:00.711Z,3.700000
2023-04-14T06:13:00.618Z,3.700000
2023-04-14T06:14:00.862Z,3.900000
2023-04-14T06:15:04.474Z,3.900000
2023-04-14T06:16:00.729Z,4.100000
2023-04-14T06:17:00.724Z,4.100000
2023-04-14T06:18:00.776Z,4.100000
2023-04-14T06:19:01.092Z,4.100000
2023-04-14T06:20:03.548Z,4.100000
2023-04-14T06:21:00.659Z,4.100000
2023-04-14T06:22:00.748Z,4.200000
2023-04-14T06:23:00.699Z,4.200000
2023-04-14T06:24:00.744Z,4.400000
2023-04-14T06:25:03.563Z,4.400000
2023-04-14T06:26:00.747Z,4.400000
2023-04-14T06:27:00.715Z,4.500000
2023-04-14T06:30:46.529Z,4.800000
2023-04-14T06:31:00.710Z,4.800000
2023-04-14T06:32:00.822Z,4.800000
2023-04-14T06:33:00.749Z,5.000000
2023-04-14T06:34:00.778Z,5.000000
2023-04-14T06:35:03.362Z,5.300000
2023-04-14T06:36:01.212Z,5.300000
2023-04-14T06:37:00.716Z,5.600000
2023-04-14T06:38:00.803Z,5.600000
2023-04-14T06:39:01.147Z,5.900000
2023-04-14T06:40:04.165Z,5.900000
2023-04-14T06:41:00.760Z,5.900000
2023-04-14T06:42:00.851Z,6.300000
2023-04-14T06:43:00.761Z,6.300000
2023-04-14T06:44:00.831Z,6.300000
2023-04-14T06:45:03.448Z,6.700000
2023-04-14T06:46:01.005Z,6.700000
2023-04-14T06:47:00.756Z,6.900000
2023-04-14T06:48:00.918Z,6.900000
2023-04-14T06:49:01.049Z,6.900000
2023-04-14T06:50:03.939Z,6.900000
2023-04-14T06:51:00.820Z,6.900000
2023-04-14T06:52:00.865Z,6.900000
2023-04-14T06:53:00.794Z,6.900000
2023-04-14T06:54:01.257Z,6.900000
2023-04-14T06:55:03.716Z,7.100000
2023-04-14T06:56:00.888Z,7.100000
2023-04-14T06:57:01.253Z,7.100000
2023-04-14T06:58:00.891Z,7.100000
2023-04-14T06:59:00.810Z,7.100000
2023-04-14T07:00:05.255Z,7.200000
2023-04-14T07:01:00.853Z,7.200000
2023-04-14T07:02:01.113Z,7.300000
2023-04-14T07:03:00.912Z,7.300000
2023-04-14T07:04:01.071Z,7.300000
2023-04-14T07:05:03.777Z,7.400000
2023-04-14T07:06:00.952Z,7.400000
2023-04-14T07:07:00.862Z,7.400000
2023-04-14T07:08:00.899Z,7.500000
2023-04-14T07:09:00.856Z,7.500000
2023-04-14T07:10:05.642Z,7.600000
2023-04-14T07:11:00.870Z,7.600000
2023-04-14T07:12:01.221Z,7.800000
2023-04-14T07:13:00.886Z,7.800000
2023-04-14T07:14:01.146Z,7.800000
2023-04-14T07:15:03.665Z,8.000000
2023-04-14T07:16:01.005Z,8.000000
2023-04-14T07:17:00.899Z,8.000000
2023-04-14T07:18:01.100Z,8.000000
2023-04-14T07:19:00.965Z,8.000000
2023-04-14T07:20:04.151Z,8.000000
2023-04-14T07:21:00.946Z,8.400000
2023-04-14T07:22:00.992Z,8.400000
2023-04-14T07:23:00.955Z,8.800000
2023-04-14T07:24:01.292Z,8.800000
2023-04-14T07:25:03.658Z,8.500000
2023-04-14T07:26:01.093Z,8.500000
2023-04-14T07:27:00.964Z,8.500000
2023-04-14T07:28:03.964Z,8.700000
2023-04-14T07:29:00.952Z,8.700000
2023-04-14T07:30:04.236Z,8.900000
2023-04-14T07:31:01.037Z,8.900000
2023-04-14T07:32:01.043Z,8.900000
2023-04-14T07:33:01.073Z,9.100000
2023-04-14T07:34:01.210Z,9.100000
2023-04-14T07:35:03.539Z,9.400000
2023-04-14T07:36:03.043Z,9.400000
2023-04-14T07:37:01.013Z,9.400000
2023-04-14T07:38:01.084Z,9.300000
2023-04-14T07:39:01.044Z,9.300000
2023-04-14T07:40:04.416Z,9.800000
2023-04-14T07:41:01.038Z,9.800000
2023-04-14T07:42:01.330Z,9.800000
2023-04-14T07:43:01.055Z,10.100000
2023-04-14T07:44:01.310Z,10.100000
2023-04-14T07:45:03.808Z,10.300000
2023-04-14T07:46:01.184Z,10.300000
2023-04-14T07:47:01.062Z,10.300000
2023-04-14T07:48:01.212Z,10.400000
2023-04-14T07:49:01.077Z,10.400000
2023-04-14T07:50:04.163Z,10.400000
2023-04-14T07:51:01.086Z,10.400000
2023-04-14T07:52:01.155Z,10.400000
2023-04-14T07:53:01.149Z,10.400000
2023-04-14T07:54:01.596Z,10.200000
2023-04-14T07:55:03.940Z,10.200000
2023-04-14T07:56:01.194Z,10.000000
2023-04-14T07:57:01.130Z,10.000000
2023-04-14T07:58:01.194Z,10.000000
2023-04-14T07:59:01.300Z,10.000000
2023-04-14T08:00:04.488Z,10.000000
2023-04-14T08:01:01.174Z,9.900000
2023-04-14T08:02:01.341Z,9.900000
2023-04-14T08:03:00.284Z,9.900000
2023-04-14T08:04:00.517Z,10.000000
2023-04-14T08:05:04.089Z,10.000000
2023-04-14T08:06:00.263Z,10.200000
2023-04-14T08:07:00.175Z,10.200000
2023-04-14T08:08:00.250Z,10.500000
2023-04-14T08:09:00.499Z,10.500000
2023-04-14T08:10:03.263Z,10.500000
2023-04-14T08:11:00.178Z,10.200000
2023-04-14T08:12:00.287Z,10.200000
2023-04-14T08:13:03.044Z,10.200000
2023-04-14T08:14:00.293Z,10.200000
2023-04-14T08:15:02.939Z,10.200000
2023-04-14T08:16:00.303Z,10.200000
2023-04-14T08:17:00.236Z,10.400000
2023-04-14T08:18:00.380Z,10.400000
2023-04-14T08:19:00.664Z,10.400000
2023-04-14T08:20:03.350Z,10.400000
2023-04-14T08:21:00.240Z,10.600000
2023-04-14T08:22:00.303Z,10.600000
2023-04-14T08:23:00.240Z,10.600000
2023-04-14T08:24:00.445Z,10.800000
2023-04-14T08:25:03.085Z,10.800000
2023-04-14T08:26:00.375Z,10.800000
2023-04-14T08:27:00.269Z,10.900000
2023-04-14T08:28:00.334Z,10.900000
2023-04-14T08:29:00.499Z,11.000000
2023-04-14T08:30:03.479Z,11.000000
2023-04-14T08:31:00.263Z,11.100000
2023-04-14T08:32:00.443Z,11.100000
2023-04-14T08:33:00.328Z,11.100000
2023-04-14T08:34:00.433Z,11.400000
2023-04-14T08:35:35.459Z,11.400000
2023-04-14T08:36:00.901Z,11.400000
2023-04-14T08:37:00.307Z,11.700000
2023-04-14T08:38:00.397Z,11.700000
2023-04-14T08:39:00.501Z,11.800000
2023-04-14T08:40:03.434Z,11.800000
2023-04-14T08:41:00.324Z,11.800000
2023-04-14T08:42:00.456Z,11.900000
2023-04-14T08:43:00.333Z,11.900000
2023-04-14T08:44:00.420Z,11.900000
2023-04-14T08:45:03.021Z,11.900000
2023-04-14T08:46:00.463Z,11.900000
2023-04-14T08:47:00.354Z,12.000000
2023-04-14T08:48:00.517Z,12.000000
2023-04-14T08:49:00.701Z,11.900000
2023-04-14T08:50:03.595Z,11.900000
2023-04-14T08:51:00.509Z,11.900000
2023-04-14T08:52:00.502Z,12.000000
2023-04-14T08:53:00.394Z,12.000000
2023-04-14T08:54:00.844Z,11.800000
2023-04-14T08:55:03.289Z,11.800000
2023-04-14T08:56:00.481Z,11.800000
2023-04-14T08:57:00.425Z,11.700000
2023-04-14T08:58:00.534Z,11.700000
2023-04-14T08:59:00.418Z,12.000000
2023-04-14T09:00:04.308Z,12.000000
2023-04-14T09:01:00.536Z,12.000000
2023-04-14T09:02:00.691Z,12.500000
2023-04-14T09:03:00.633Z,12.500000
2023-04-14T09:04:02.009Z,12.800000
2023-04-14T09:05:03.390Z,12.800000
2023-04-14T09:06:00.583Z,12.800000
2023-04-14T09:07:00.518Z,12.800000
2023-04-14T09:08:01.265Z,12.800000
2023-04-14T09:09:00.514Z,12.900000
2023-04-14T09:10:04.279Z,12.900000
2023-04-14T09:11:00.530Z,12.900000
2023-04-14T09:12:00.654Z,12.600000
2023-04-14T09:13:00.543Z,12.600000
2023-04-14T09:14:01.483Z,12.600000
2023-04-14T09:15:03.202Z,12.600000
2023-04-14T09:16:00.649Z,12.100000
2023-04-14T09:17:00.616Z,12.100000
2023-04-14T09:18:00.650Z,12.100000
2023-04-14T09:19:06.696Z,12.200000
2023-04-14T09:20:36.567Z,12.200000
2023-04-14T09:21:30.221Z,12.200000
2023-04-14T09:22:00.688Z,12.100000
2023-04-14T09:23:00.603Z,12.100000
2023-04-14T09:24:00.887Z,12.500000
2023-04-14T09:25:03.478Z,12.500000
2023-04-14T09:26:00.667Z,12.700000
2023-04-14T09:27:00.597Z,12.700000
2023-04-14T09:28:00.763Z,12.700000
2023-04-14T09:29:01.013Z,12.500000
2023-04-14T09:30:03.990Z,12.500000
2023-04-14T09:31:00.668Z,12.500000
2023-04-14T09:55:12.577Z,12.800000
2023-04-14T09:56:00.334Z,12.800000
2023-04-14T09:57:00.271Z,12.800000
2023-04-14T09:58:00.322Z,13.100000
2023-04-14T09:59:00.713Z,13.100000
2023-04-14T10:00:01.224Z,13.200000
2023-04-14T10:01:00.316Z,13.200000
2023-04-14T10:02:00.442Z,12.900000
2023-04-14T10:03:00.359Z,12.900000
2023-04-14T10:04:00.367Z,12.900000
2023-04-14T10:05:03.343Z,12.700000
2023-04-14T10:06:00.393Z,12.700000
2023-04-14T10:07:00.337Z,12.700000
2023-04-14T10:08:00.396Z,12.700000
2023-04-14T10:09:00.708Z,12.700000
2023-04-14T10:10:03.389Z,13.000000
2023-04-14T10:11:00.365Z,13.000000
2023-04-14T10:12:00.418Z,13.200000
2023-04-14T10:13:00.364Z,13.200000
2023-04-14T10:14:07.640Z,13.200000
2023-04-14T10:15:04.448Z,13.600000
2023-04-14T10:16:00.483Z,13.600000
2023-04-14T10:17:00.392Z,13.600000
2023-04-14T10:18:00.477Z,14.000000
2023-04-14T10:19:00.827Z,14.000000
2023-04-14T10:20:03.509Z,13.900000
2023-04-14T10:21:00.418Z,13.900000
2023-04-14T10:22:00.476Z,13.900000
2023-04-14T10:23:00.410Z,14.000000
2023-04-14T10:24:01.604Z,14.000000
2023-04-14T10:25:02.994Z,13.800000
2023-04-14T10:26:00.505Z,13.800000
2023-04-14T10:27:00.432Z,13.600000
2023-04-14T10:28:00.503Z,13.600000
2023-04-14T10:29:00.800Z,13.600000
2023-04-14T10:30:03.477Z,13.900000
2023-04-14T10:31:00.429Z,13.900000
2023-04-14T10:32:00.617Z,13.500000
2023-04-14T10:33:00.546Z,13.500000
2023-04-14T10:34:00.534Z,13.500000
2023-04-14T10:35:03.231Z,13.400000
2023-04-14T10:36:00.577Z,13.400000
2023-04-14T10:37:00.468Z,13.500000
2023-04-14T10:38:00.540Z,13.500000
2023-04-14T10:39:00.890Z,13.500000
2023-04-14T10:40:03.970Z,13.300000
2023-04-14T10:41:00.498Z,13.300000
2023-04-14T10:42:00.617Z,13.300000
2023-04-14T10:43:00.536Z,13.300000
2023-04-14T10:44:00.591Z,13.300000
2023-04-14T10:45:03.313Z,13.300000
2023-04-14T10:46:00.611Z,13.300000
2023-04-14T10:47:00.580Z,13.300000
2023-04-14T10:48:00.714Z,13.500000
2023-04-14T10:49:00.830Z,13.500000
2023-04-14T10:50:04.628Z,13.500000
2023-04-14T10:51:00.580Z,13.800000
2023-04-14T10:52:00.646Z,13.800000
2023-04-14T10:53:00.580Z,13.900000
2023-04-14T10:54:00.681Z,13.900000
2023-04-14T10:55:03.157Z,13.900000
2023-04-14T10:56:00.669Z,13.600000
2023-04-14T10:57:00.616Z,13.600000
2023-04-14T10:58:00.709Z,13.300000
2023-04-14T10:59:00.885Z,13.300000
2023-04-14T11:00:03.994Z,13.300000
2023-04-14T11:01:00.664Z,12.900000
2023-04-14T11:02:00.865Z,12.900000
2023-04-14T11:03:00.944Z,12.800000
2023-04-14T11:04:00.870Z,12.800000
2023-04-14T11:05:03.517Z,12.800000
2023-04-14T11:06:00.748Z,13.000000
2023-04-14T11:07:00.667Z,13.000000
2023-04-14T11:08:02.758Z,13.300000
2023-04-14T11:09:00.901Z,13.300000
2023-04-14T11:10:03.777Z,13.300000
2023-04-14T11:11:00.734Z,13.600000
2023-04-14T11:12:00.808Z,13.600000
2023-04-14T11:13:00.907Z,13.600000
2023-04-14T11:14:00.799Z,13.500000
2023-04-14T11:15:03.460Z,13.500000
2023-04-14T11:16:00.834Z,13.600000
2023-04-14T11:17:03.779Z,13.600000
2023-04-14T11:18:00.830Z,13.600000
2023-04-14T11:19:00.930Z,13.500000
2023-04-14T11:20:03.918Z,13.500000
2023-04-14T11:21:00.771Z,13.200000
2023-04-14T11:22:00.827Z,13.200000
2023-04-14T11:23:00.785Z,13.200000
2023-04-14T11:24:00.865Z,13.000000
2023-04-14T11:25:03.304Z,13.000000
2023-04-14T11:26:00.878Z,13.100000
2023-04-14T11:27:00.808Z,13.100000
2023-04-14T11:28:00.861Z,13.100000
2023-04-14T11:29:01.002Z,13.400000
2023-04-14T11:30:04.015Z,13.400000
2023-04-14T11:31:01.019Z,13.600000
2023-04-14T11:32:00.920Z,13.600000
2023-04-14T11:33:00.938Z,13.600000
2023-04-14T11:34:04.863Z,14.000000
2023-04-14T11:35:03.565Z,14.000000
2023-04-14T11:36:00.982Z,14.000000
2023-04-14T11:37:00.855Z,14.400000
2023-04-14T11:38:00.939Z,14.400000
2023-04-14T11:39:01.137Z,14.600000
2023-04-14T11:40:03.958Z,14.600000
2023-04-14T11:41:00.896Z,14.200000
2023-04-14T11:42:01.001Z,14.200000
2023-04-14T11:43:00.899Z,14.400000
2023-04-14T11:44:00.968Z,14.400000
2023-04-14T11:45:04.702Z,14.400000
2023-04-14T11:46:00.999Z,14.400000
2023-04-14T11:47:00.946Z,14.400000
2023-04-14T11:48:01.102Z,14.400000
2023-04-14T11:49:01.381Z,14.200000
2023-04-14T11:50:03.751Z,14.200000
2023-04-14T11:51:00.989Z,14.600000
2023-04-14T11:52:01.020Z,14.600000
2023-04-14T11:53:00.995Z,14.600000
2023-04-14T11:54:01.049Z,14.600000
2023-04-14T11:55:03.787Z,14.600000
2023-04-14T11:56:01.124Z,14.600000
2023-04-14T11:57:01.097Z,14.600000
2023-04-14T11:58:01.068Z,15.000000
2023-04-14T11:59:01.445Z,15.000000
2023-04-14T12:00:04.314Z,15.000000
2023-04-14T12:01:01.005Z,15.000000
2023-04-14T12:02:01.133Z,15.000000
2023-04-14T12:03:01.188Z,15.000000